עמוד ראשי
METAR-TAF:

METAR-TAF

שדות תעופה :

Chinandega, ניקרגואה

קו רוחב: 12-38N, קו אורך: 087-08W, גובה: 53מטר

תצפית מזג אוויר נוכחית

הדו"ח נערך לפני 18דקות, בשעה 15:00 UTC
רוח 6קשר מכיוון צפון
טמפרטורת 33 צלסיוס
לחות 46%
לחץ 1013 hPa
ראות 10 קילומטר או יותר
מעט עננים בגובה 2500רגל

METAR: MNCH 241500Z 36006KT 9999 FEW025 33/20 Q1013 2AC090 2CI300

זמן: 09:18 (15:18 UTC)


TAF: חסר

תצפיות ותחזיות מזג אוויר לגבי יותר מ- 4,000 שדות תעופה ברחבי העולם. דוחות METAR ו- TAF.

התחנות הזמינות מסומנות בנקודות צהובות ואדומות על גבי המפה.

העבר את העכבר לנקודה הצבעונית על מנת לראות את שם התחנה.

לאחר מכן, לחץ כדי לראות את תוכן ואת תחזיות מזג האוויר.

כדי לשנות את המפה: לחץ על הכפתורים הירוקים עם הפלוס השחור כדי להתקרב; על הכפתור הירוק עם המקף כדי להתרחק; או בחיצים הירוקים למפות סמוכות.


METAR-TAF: